Time;durP1;ratioP1;P1;durP2;ratioP2;P2;SDS_P1;SDS_P2;PMS_P1;PMS_P2;Temp;Humidity;BMP_temperature;BMP_pressure;BME280_temperature;BME280_humidity;BME280_pressure;Samples;Min_cycle;Max_cycle;Signal;HPM_P1;HPM_P2
2023/09/17 00:00:05;;;;;;;15.13;13.73;;;15.80;87.10;;;;;;5113341;28;20204;-89
2023/09/17 00:02:31;;;;;;;13.93;12.82;;;15.80;86.80;;;;;;5113926;28;20589;-89
2023/09/17 00:04:57;;;;;;;16.50;15.02;;;15.80;86.70;;;;;;5113270;28;20194;-89
2023/09/17 00:07:22;;;;;;;16.10;14.70;;;15.80;86.60;;;;;;5113553;28;20215;-89
2023/09/17 00:09:48;;;;;;;17.20;15.60;;;15.80;86.50;;;;;;5114536;28;20173;-88
2023/09/17 00:12:14;;;;;;;16.50;14.80;;;15.80;86.40;;;;;;5113286;28;20249;-88
2023/09/17 00:14:39;;;;;;;17.17;15.63;;;15.90;86.30;;;;;;5113264;28;20212;-88
2023/09/17 00:17:05;;;;;;;17.33;15.63;;;15.80;86.20;;;;;;5112993;28;20185;-88
2023/09/17 00:19:32;;;;;;;15.88;14.40;;;15.80;86.20;;;;;;5112871;28;20185;-88
2023/09/17 00:21:58;;;;;;;17.40;15.80;;;15.80;86.20;;;;;;5114480;28;20162;-87
2023/09/17 00:24:24;;;;;;;16.02;13.98;;;15.80;86.30;;;;;;5114275;28;20186;-86
2023/09/17 00:26:50;;;;;;;15.77;14.48;;;15.80;86.30;;;;;;5115590;28;20248;-89
2023/09/17 00:29:15;;;;;;;14.27;12.98;;;15.80;86.20;;;;;;5114677;28;20193;-88
2023/09/17 00:31:41;;;;;;;14.15;12.75;;;15.70;86.10;;;;;;5112905;28;20177;-89
2023/09/17 00:34:07;;;;;;;16.05;14.65;;;15.70;86.10;;;;;;5113935;28;20197;-88
2023/09/17 00:36:32;;;;;;;17.42;15.77;;;15.60;86.10;;;;;;5112790;28;20208;-89
2023/09/17 00:38:58;;;;;;;17.73;16.13;;;15.60;86.10;;;;;;5113222;28;20177;-90
2023/09/17 00:41:23;;;;;;;16.63;15.15;;;15.50;86.10;;;;;;5113377;28;20198;-89
2023/09/17 00:43:49;;;;;;;17.15;15.65;;;15.50;86.00;;;;;;5112769;28;20186;-89
2023/09/17 00:46:14;;;;;;;19.08;15.65;;;15.50;86.00;;;;;;5113899;28;20162;-89
2023/09/17 00:48:41;;;;;;;18.05;16.45;;;15.40;86.00;;;;;;5112667;28;20174;-89
2023/09/17 00:51:07;;;;;;;27.27;24.83;;;15.40;85.90;;;;;;5113877;28;20166;-90
2023/09/17 00:53:33;;;;;;;29.20;26.80;;;15.30;86.00;;;;;;5112716;28;20577;-89
2023/09/17 00:55:59;;;;;;;18.17;16.50;;;15.30;86.00;;;;;;5112498;28;20189;-89
2023/09/17 00:58:28;;;;;;;16.65;14.95;;;15.30;86.00;;;;;;5112679;28;20200;-89
2023/09/17 01:00:55;;;;;;;16.98;15.50;;;15.30;86.00;;;;;;5112838;28;20208;-90
2023/09/17 01:03:21;;;;;;;16.45;15.05;;;15.20;86.00;;;;;;5112580;28;20190;-90
2023/09/17 01:05:47;;;;;;;16.48;15.07;;;15.20;86.00;;;;;;5113800;28;20173;-89
2023/09/17 01:08:13;;;;;;;18.55;16.70;;;15.20;86.00;;;;;;5113681;28;20705;-89
2023/09/17 01:10:41;;;;;;;17.58;15.98;;;15.20;85.90;;;;;;5112635;28;20174;-89
2023/09/17 01:13:08;;;;;;;16.67;14.68;;;15.20;85.90;;;;;;5116497;28;20166;-89
2023/09/17 01:15:34;;;;;;;19.45;17.75;;;15.10;85.90;;;;;;5116557;28;20181;-89
2023/09/17 01:18:02;;;;;;;19.25;17.52;;;15.00;85.90;;;;;;5116763;28;20185;-90
2023/09/17 01:20:31;;;;;;;19.77;17.98;;;15.00;86.00;;;;;;5116754;28;20197;-90
2023/09/17 01:23:03;;;;;;;21.17;19.17;;;15.00;85.90;;;;;;5118194;28;20166;-90
2023/09/17 01:25:50;;;;;;;25.48;21.60;;;14.90;85.90;;;;;;5117369;28;20162;-90
2023/09/17 01:28:16;;;;;;;24.25;21.85;;;14.90;86.30;;;;;;5116727;28;20173;-90
2023/09/17 01:30:42;;;;;;;22.80;20.65;;;14.90;87.00;;;;;;5116434;28;20660;-90
2023/09/17 01:33:11;;;;;;;21.65;19.65;;;14.90;87.10;;;;;;5116465;28;20177;-90
2023/09/17 01:36:06;;;;;;;24.50;20.20;;;14.80;87.10;;;;;;5117762;28;20544;-90
2023/09/17 01:38:38;;;;;;;22.15;20.05;;;14.90;87.00;;;;;;5108112;28;20557;-90
2023/09/17 01:41:06;;;;;;;23.73;21.52;;;14.90;86.90;;;;;;5117216;28;20534;-89
2023/09/17 01:43:32;;;;;;;40.38;23.33;;;14.80;87.70;;;;;;5117406;27;20190;-90
2023/09/17 01:45:59;;;;;;;24.80;22.50;;;14.80;87.70;;;;;;5116182;28;20655;-90
2023/09/17 01:48:27;;;;;;;21.80;19.90;;;14.80;87.60;;;;;;5116149;28;20267;-90
2023/09/17 01:50:54;;;;;;;20.02;18.33;;;14.80;87.50;;;;;;5115993;28;20178;-90
2023/09/17 01:53:20;;;;;;;17.95;16.38;;;14.80;87.40;;;;;;5115863;28;20198;-90
2023/09/17 01:55:52;;;;;;;19.40;17.50;;;14.80;87.30;;;;;;5116102;28;20227;-89
2023/09/17 01:58:18;;;;;;;16.58;15.07;;;14.80;87.30;;;;;;5117146;28;20180;-89
2023/09/17 02:00:44;;;;;;;13.15;12.15;;;14.80;87.20;;;;;;5115805;28;20198;-90
2023/09/17 02:03:10;;;;;;;14.00;12.82;;;14.80;87.10;;;;;;5116898;28;20238;-90
2023/09/17 02:05:35;;;;;;;14.02;12.93;;;14.80;87.10;;;;;;5117206;28;20169;-90
2023/09/17 02:08:01;;;;;;;15.13;13.82;;;14.70;87.00;;;;;;5115995;28;20176;-90
2023/09/17 02:10:26;;;;;;;14.88;13.57;;;14.70;87.00;;;;;;5115663;28;20192;-89
2023/09/17 02:12:52;;;;;;;16.40;15.00;;;14.60;87.00;;;;;;5115721;28;20173;-90
2023/09/17 02:15:19;;;;;;;16.00;14.50;;;14.60;86.90;;;;;;5115539;28;20585;-90
2023/09/17 02:17:44;;;;;;;18.42;15.18;;;14.50;86.90;;;;;;5115560;28;20174;-90
2023/09/17 02:20:11;;;;;;;16.98;15.38;;;14.50;86.80;;;;;;5115415;28;20759;-90
2023/09/17 02:22:38;;;;;;;18.52;16.83;;;14.40;86.70;;;;;;5115653;28;20174;-90
2023/09/17 02:25:05;;;;;;;17.13;15.52;;;14.40;86.80;;;;;;5116699;28;20265;-89
2023/09/17 02:27:30;;;;;;;19.55;17.77;;;14.30;86.80;;;;;;5115523;28;20170;-90
2023/09/17 02:29:56;;;;;;;23.33;19.77;;;14.30;86.70;;;;;;5116648;28;20177;-89
2023/09/17 02:32:21;;;;;;;57.03;26.63;;;14.30;86.60;;;;;;5115070;28;20182;-89
2023/09/17 02:34:47;;;;;;;63.83;28.05;;;14.10;86.80;;;;;;5115186;28;20239;-90
2023/09/17 02:37:13;;;;;;;37.08;24.00;;;14.00;87.20;;;;;;5115128;28;20532;-89
2023/09/17 02:39:38;;;;;;;27.70;24.50;;;13.80;87.70;;;;;;5114940;28;20185;-90
2023/09/17 02:42:04;;;;;;;126.85;28.98;;;13.80;88.00;;;;;;5115131;28;20189;-90
2023/09/17 02:44:29;;;;;;;99.55;28.73;;;13.80;88.20;;;;;;5116134;28;20193;-90
2023/09/17 02:46:55;;;;;;;111.25;26.40;;;13.80;88.60;;;;;;5115738;28;20185;-89
2023/09/17 02:49:21;;;;;;;110.50;22.92;;;13.80;89.00;;;;;;5115010;28;20258;-90
2023/09/17 02:51:48;;;;;;;159.32;24.80;;;13.70;89.30;;;;;;5116302;28;20250;-90
2023/09/17 02:54:14;;;;;;;132.97;24.80;;;13.60;89.60;;;;;;5114598;28;20668;-89
2023/09/17 02:56:40;;;;;;;81.07;26.47;;;13.60;89.80;;;;;;5115160;28;20190;-89
2023/09/17 02:59:05;;;;;;;94.07;24.93;;;13.50;90.00;;;;;;5114760;28;20227;-89
2023/09/17 03:01:31;;;;;;;82.03;25.57;;;13.50;90.20;;;;;;5115529;28;20250;-89
2023/09/17 03:03:57;;;;;;;25.77;23.35;;;13.50;90.30;;;;;;5114578;28;20194;-90
2023/09/17 03:06:23;;;;;;;24.23;22.10;;;13.50;90.30;;;;;;5116223;28;20166;-90
2023/09/17 03:08:49;;;;;;;23.58;21.58;;;13.60;90.40;;;;;;5114667;28;20598;-90
2023/09/17 03:11:17;;;;;;;27.33;24.93;;;13.60;90.40;;;;;;5114736;28;20174;-90
2023/09/17 03:13:44;;;;;;;27.38;25.08;;;13.60;90.40;;;;;;5114573;28;20224;-90
2023/09/17 03:16:16;;;;;;;23.33;21.42;;;13.70;90.40;;;;;;5114643;28;20273;-90
2023/09/17 03:18:45;;;;;;;17.53;15.93;;;13.60;90.40;;;;;;5114424;28;20170;-90
2023/09/17 03:21:11;;;;;;;17.60;16.10;;;13.70;90.30;;;;;;5114147;28;20244;-90
2023/09/17 03:23:38;;;;;;;24.90;22.80;;;13.70;90.30;;;;;;5114243;28;20220;-90
2023/09/17 03:26:04;;;;;;;29.93;27.33;;;13.70;90.30;;;;;;5115447;28;20257;-89
2023/09/17 03:28:31;;;;;;;23.67;21.38;;;13.70;90.30;;;;;;5114349;28;20185;-90
2023/09/17 03:30:57;;;;;;;30.50;22.67;;;13.70;90.20;;;;;;5114331;28;20178;-90
2023/09/17 03:33:22;;;;;;;23.13;20.83;;;13.60;90.20;;;;;;5114123;28;20231;-89
2023/09/17 03:35:48;;;;;;;20.10;18.10;;;13.60;90.20;;;;;;5113241;28;20201;-89
2023/09/17 03:38:14;;;;;;;18.45;16.80;;;13.70;90.30;;;;;;5113781;28;20181;-89
2023/09/17 03:40:40;;;;;;;20.95;19.05;;;13.60;90.20;;;;;;5113786;28;20227;-90
2023/09/17 03:43:06;;;;;;;31.05;22.17;;;13.60;90.10;;;;;;5114243;28;20189;-89
2023/09/17 03:45:31;;;;;;;78.40;23.15;;;13.60;90.00;;;;;;5113839;28;20546;-90
2023/09/17 03:47:57;;;;;;;146.83;23.50;;;13.50;90.00;;;;;;5114769;28;20162;-90
2023/09/17 03:50:23;;;;;;;110.57;22.67;;;13.40;90.00;;;;;;5113563;28;20174;-90
2023/09/17 03:52:54;;;;;;;108.20;23.97;;;13.40;90.10;;;;;;5113627;28;20201;-89
2023/09/17 03:55:20;;;;;;;83.83;21.30;;;13.30;90.30;;;;;;5113362;28;20206;-90
2023/09/17 03:57:46;;;;;;;56.33;23.50;;;13.30;90.40;;;;;;5113452;28;20178;-89
2023/09/17 04:00:13;;;;;;;50.77;22.07;;;13.30;90.60;;;;;;5114532;28;20266;-89
2023/09/17 04:02:40;;;;;;;47.53;21.90;;;13.30;90.60;;;;;;5114511;28;20248;-89
2023/09/17 04:05:10;;;;;;;53.27;21.80;;;13.30;90.70;;;;;;5113715;28;20542;-89
2023/09/17 04:07:44;;;;;;;42.27;23.33;;;13.20;90.70;;;;;;5114540;28;20160;-89
2023/09/17 04:10:10;;;;;;;45.83;23.27;;;13.20;90.80;;;;;;5113411;28;20225;-89
2023/09/17 04:12:38;;;;;;;42.27;22.47;;;13.20;90.90;;;;;;5114481;28;20174;-90
2023/09/17 04:15:13;;;;;;;25.47;21.87;;;13.20;90.90;;;;;;5114232;28;20196;-90
2023/09/17 04:17:39;;;;;;;26.67;20.97;;;13.20;91.00;;;;;;5115048;28;20178;-91
2023/09/17 04:20:10;;;;;;;29.70;22.00;;;13.10;91.10;;;;;;5113601;28;20201;-91
2023/09/17 04:22:36;;;;;;;36.37;23.10;;;13.00;91.20;;;;;;5113464;28;20165;-90
2023/09/17 04:25:04;;;;;;;42.17;22.60;;;13.00;91.40;;;;;;5113079;28;20194;-89
2023/09/17 04:27:30;;;;;;;27.27;23.03;;;12.90;91.50;;;;;;5114511;28;20726;-88
2023/09/17 04:29:56;;;;;;;44.43;22.60;;;13.00;91.70;;;;;;5113639;28;20170;-91
2023/09/17 04:32:21;;;;;;;41.77;23.33;;;12.90;91.60;;;;;;5113508;28;20181;-90
2023/09/17 04:34:47;;;;;;;48.60;24.23;;;12.80;91.80;;;;;;5113090;28;20232;-88
2023/09/17 04:37:12;;;;;;;37.70;23.57;;;12.80;91.90;;;;;;5114436;28;20178;-90
2023/09/17 04:39:38;;;;;;;36.47;24.70;;;12.80;92.00;;;;;;5112992;28;20552;-90
2023/09/17 04:42:04;;;;;;;24.90;22.67;;;12.90;92.00;;;;;;5114405;28;20173;-90
2023/09/17 04:44:29;;;;;;;26.23;23.93;;;13.00;92.10;;;;;;5113713;28;20201;-90
2023/09/17 04:46:55;;;;;;;23.13;21.03;;;13.00;92.10;;;;;;5113087;28;20223;-90
2023/09/17 04:49:20;;;;;;;22.50;20.50;;;13.00;92.10;;;;;;5114226;28;20257;-88
2023/09/17 04:51:46;;;;;;;23.13;21.00;;;13.10;92.10;;;;;;5112551;28;20174;-89
2023/09/17 04:54:11;;;;;;;22.03;20.23;;;13.10;92.10;;;;;;5113848;28;20263;-90
2023/09/17 04:56:37;;;;;;;24.57;22.07;;;13.10;92.10;;;;;;5112851;28;20293;-90
2023/09/17 04:59:04;;;;;;;23.83;20.90;;;13.10;92.10;;;;;;5112609;28;20283;-90
2023/09/17 05:01:29;;;;;;;31.43;20.80;;;13.10;92.00;;;;;;5113696;28;20288;-90
2023/09/17 05:03:55;;;;;;;27.27;22.60;;;12.90;91.90;;;;;;5112639;28;20222;-90
2023/09/17 05:06:21;;;;;;;39.27;21.63;;;12.90;91.90;;;;;;5112522;28;20261;-90
2023/09/17 05:08:46;;;;;;;36.63;23.77;;;13.00;92.00;;;;;;5113706;28;20170;-91
2023/09/17 05:11:12;;;;;;;25.73;23.20;;;12.90;91.80;;;;;;5113675;28;20575;-90
2023/09/17 05:13:37;;;;;;;26.63;24.03;;;12.90;91.90;;;;;;5112497;28;20227;-88
2023/09/17 05:16:04;;;;;;;25.90;23.60;;;13.00;92.00;;;;;;5113737;28;20173;-91
2023/09/17 05:18:29;;;;;;;26.90;24.10;;;13.00;92.10;;;;;;5113734;28;20254;-90
2023/09/17 05:20:55;;;;;;;25.97;23.67;;;13.10;92.10;;;;;;5112413;28;20247;-89
2023/09/17 05:23:21;;;;;;;25.23;23.03;;;13.10;92.10;;;;;;5112303;28;20288;-90
2023/09/17 05:25:47;;;;;;;24.67;22.63;;;13.20;92.10;;;;;;5113582;28;20546;-90
2023/09/17 05:28:13;;;;;;;24.33;22.20;;;13.20;92.10;;;;;;5113308;28;20171;-90
2023/09/17 05:30:38;;;;;;;23.73;21.73;;;13.20;92.10;;;;;;5112445;28;20184;-89
2023/09/17 05:33:04;;;;;;;21.50;19.70;;;13.20;92.10;;;;;;5112358;28;20664;-89
2023/09/17 05:35:30;;;;;;;29.70;21.07;;;13.20;91.90;;;;;;5113632;28;20247;-89
2023/09/17 05:37:56;;;;;;;24.73;22.20;;;13.10;91.80;;;;;;5112303;28;20265;-89
2023/09/17 05:40:22;;;;;;;22.93;20.97;;;13.20;91.90;;;;;;5112258;28;20621;-90
2023/09/17 05:42:47;;;;;;;23.13;21.03;;;13.20;91.90;;;;;;5112729;28;20283;-89
2023/09/17 05:45:13;;;;;;;23.53;21.23;;;13.30;91.90;;;;;;5113987;28;20677;-89
2023/09/17 05:47:40;;;;;;;26.63;23.93;;;13.30;91.80;;;;;;5114497;28;20675;-90
2023/09/17 05:50:07;;;;;;;30.93;28.37;;;13.30;91.70;;;;;;5113727;28;20192;-90
2023/09/17 05:52:32;;;;;;;29.50;27.07;;;13.40;91.70;;;;;;5112479;28;20174;-90
2023/09/17 05:54:59;;;;;;;30.27;27.97;;;13.30;91.50;;;;;;5113549;28;20621;-89
2023/09/17 05:57:25;;;;;;;24.03;21.83;;;13.40;91.50;;;;;;5112526;28;20596;-90
2023/09/17 05:59:50;;;;;;;23.20;21.30;;;13.40;91.50;;;;;;5117120;28;20170;-90
2023/09/17 06:02:16;;;;;;;26.17;24.07;;;13.40;91.40;;;;;;5117327;28;20162;-90
2023/09/17 06:04:43;;;;;;;24.53;22.60;;;13.50;91.40;;;;;;5115934;28;20741;-90
2023/09/17 06:07:08;;;;;;;24.50;22.40;;;13.60;91.30;;;;;;5117247;28;20197;-90
2023/09/17 06:09:34;;;;;;;23.30;21.40;;;13.60;91.30;;;;;;5116961;28;20166;-90
2023/09/17 06:11:59;;;;;;;23.90;21.80;;;13.60;91.30;;;;;;5115576;28;20657;-89
2023/09/17 06:14:25;;;;;;;24.03;22.03;;;13.70;91.30;;;;;;5115818;28;20251;-90
2023/09/17 06:16:50;;;;;;;24.58;22.48;;;13.70;91.20;;;;;;5115433;28;20210;-89
2023/09/17 06:19:16;;;;;;;23.63;21.50;;;13.80;91.20;;;;;;5115346;28;20174;-88
2023/09/17 06:21:42;;;;;;;24.85;22.95;;;13.80;91.10;;;;;;5115124;28;20202;-89
2023/09/17 06:24:07;;;;;;;27.38;25.15;;;13.90;91.20;;;;;;5115231;28;20567;-90
2023/09/17 06:26:34;;;;;;;28.88;26.50;;;14.00;91.40;;;;;;5116779;28;20163;-90
2023/09/17 06:28:59;;;;;;;29.67;27.25;;;14.10;91.60;;;;;;5116334;28;20181;-90
2023/09/17 06:31:25;;;;;;;28.20;25.80;;;14.20;91.70;;;;;;5115530;28;20181;-89
2023/09/17 06:33:51;;;;;;;28.98;26.48;;;14.20;91.80;;;;;;5116310;28;20198;-89
2023/09/17 06:36:17;;;;;;;28.37;25.97;;;14.20;91.90;;;;;;5116187;28;20196;-90
2023/09/17 06:38:42;;;;;;;30.65;27.80;;;14.20;92.00;;;;;;5115173;28;20213;-90
2023/09/17 06:41:08;;;;;;;31.63;28.83;;;14.30;92.20;;;;;;5115140;28;20202;-89
2023/09/17 06:43:33;;;;;;;32.75;29.73;;;14.30;92.30;;;;;;5114979;28;20186;-90
2023/09/17 06:45:59;;;;;;;34.70;31.33;;;14.30;92.50;;;;;;5114980;28;20193;-90
2023/09/17 06:48:25;;;;;;;35.50;32.20;;;14.40;92.70;;;;;;5115150;28;20177;-90
2023/09/17 06:50:51;;;;;;;38.05;34.25;;;14.60;92.90;;;;;;5116747;28;20776;-90
2023/09/17 06:53:17;;;;;;;39.00;35.00;;;14.70;93.00;;;;;;5116833;28;20174;-90
2023/09/17 06:55:42;;;;;;;39.97;35.88;;;14.80;93.10;;;;;;5116622;28;20186;-89
2023/09/17 06:58:08;;;;;;;45.58;40.92;;;14.80;93.20;;;;;;5115743;28;20174;-90
2023/09/17 07:00:35;;;;;;;46.45;41.67;;;14.90;93.30;;;;;;5116914;28;20198;-90
2023/09/17 07:03:01;;;;;;;46.75;41.97;;;15.00;93.40;;;;;;5116367;28;20190;-90
2023/09/17 07:05:27;;;;;;;44.65;39.90;;;15.00;93.50;;;;;;5115730;28;20703;-90
2023/09/17 07:07:52;;;;;;;43.28;38.47;;;15.10;93.50;;;;;;5115031;28;20166;-90
2023/09/17 07:10:18;;;;;;;44.63;39.40;;;15.10;93.60;;;;;;5113441;28;20184;-89
2023/09/17 07:12:43;;;;;;;44.47;39.67;;;15.20;93.60;;;;;;5116005;28;20198;-90
2023/09/17 07:15:10;;;;;;;46.10;38.65;;;15.20;93.70;;;;;;5114553;28;20744;-89
2023/09/17 07:17:36;;;;;;;46.25;40.75;;;15.30;93.70;;;;;;5114476;28;20205;-89
2023/09/17 07:20:04;;;;;;;45.25;40.35;;;15.30;93.70;;;;;;5115593;28;20198;-90
2023/09/17 07:22:30;;;;;;;47.33;42.20;;;15.40;93.80;;;;;;5116023;28;20173;-90
2023/09/17 07:24:58;;;;;;;49.50;42.88;;;15.50;93.80;;;;;;5114744;28;20194;-90
2023/09/17 07:27:25;;;;;;;48.55;42.22;;;15.50;93.80;;;;;;5114374;28;20219;-89
2023/09/17 07:29:52;;;;;;;47.47;42.40;;;15.60;93.90;;;;;;5115467;28;20170;-90
2023/09/17 07:32:18;;;;;;;46.42;41.40;;;15.70;93.90;;;;;;5114289;28;20640;-90
2023/09/17 07:34:43;;;;;;;45.22;39.20;;;15.80;93.90;;;;;;5115286;28;20190;-89
2023/09/17 07:37:09;;;;;;;49.72;43.08;;;15.90;93.90;;;;;;5113672;28;20178;-90
2023/09/17 07:39:34;;;;;;;45.88;39.88;;;16.00;93.90;;;;;;5113668;28;20181;-90
2023/09/17 07:42:00;;;;;;;42.10;37.80;;;16.10;93.90;;;;;;5113632;28;20240;-90
2023/09/17 07:44:25;;;;;;;44.55;38.70;;;16.20;93.80;;;;;;5115251;28;20289;-89
2023/09/17 07:46:51;;;;;;;46.80;39.10;;;16.20;93.80;;;;;;5113585;28;20188;-89
2023/09/17 07:49:17;;;;;;;43.58;39.17;;;16.30;93.70;;;;;;5114801;28;20162;-90
2023/09/17 07:51:43;;;;;;;45.22;38.20;;;16.30;93.70;;;;;;5113633;28;20201;-90
2023/09/17 07:54:08;;;;;;;41.92;37.35;;;16.40;93.70;;;;;;5114732;28;20197;-89
2023/09/17 07:56:34;;;;;;;41.35;37.03;;;16.60;93.70;;;;;;5114560;28;20189;-90
2023/09/17 07:59:00;;;;;;;39.50;34.88;;;16.70;93.70;;;;;;5113358;28;20190;-90
2023/09/17 08:01:25;;;;;;;38.50;34.40;;;16.70;93.60;;;;;;5113365;28;20277;-89
2023/09/17 08:03:51;;;;;;;42.90;38.60;;;16.80;93.50;;;;;;5114688;28;20664;-90
2023/09/17 08:06:16;;;;;;;41.85;37.50;;;16.80;93.40;;;;;;5113410;28;20174;-89
2023/09/17 08:08:45;;;;;;;39.95;35.88;;;16.90;93.20;;;;;;5114564;28;20211;-90
2023/09/17 08:11:14;;;;;;;37.47;33.63;;;16.90;93.00;;;;;;5114284;28;20170;-91
2023/09/17 08:13:40;;;;;;;35.88;32.33;;;17.00;92.80;;;;;;5113090;28;20198;-90
2023/09/17 08:16:06;;;;;;;38.25;34.53;;;17.10;92.70;;;;;;5113194;28;20684;-91
2023/09/17 08:18:31;;;;;;;40.40;36.10;;;17.20;92.70;;;;;;5113106;28;20182;-91
2023/09/17 08:20:58;;;;;;;38.75;34.90;;;17.30;92.60;;;;;;5114055;28;20190;-91
2023/09/17 08:23:24;;;;;;;34.33;30.88;;;17.30;92.40;;;;;;5113091;28;20639;-90
2023/09/17 08:25:50;;;;;;;33.03;29.63;;;17.40;92.30;;;;;;5112927;28;20252;-90
2023/09/17 08:28:16;;;;;;;34.10;30.60;;;17.50;92.20;;;;;;5112827;28;20174;-89
2023/09/17 08:30:42;;;;;;;31.42;28.40;;;17.60;92.00;;;;;;5114134;28;20174;-88
2023/09/17 08:33:09;;;;;;;26.60;23.92;;;17.70;91.50;;;;;;5112676;28;20181;-90
2023/09/17 08:35:35;;;;;;;26.48;23.85;;;17.70;91.10;;;;;;5112843;28;20193;-89
2023/09/17 08:38:01;;;;;;;25.95;23.35;;;17.80;90.70;;;;;;5114197;28;20174;-89
2023/09/17 08:40:27;;;;;;;25.05;22.45;;;17.80;90.30;;;;;;5113858;28;20212;-89
2023/09/17 08:42:54;;;;;;;24.92;22.42;;;17.80;89.90;;;;;;5112710;28;20195;-90
2023/09/17 08:45:20;;;;;;;24.92;22.48;;;17.90;89.30;;;;;;5112628;28;20193;-91
2023/09/17 08:47:46;;;;;;;23.80;21.50;;;17.90;89.10;;;;;;5112608;28;20170;-88
2023/09/17 08:50:12;;;;;;;22.92;20.50;;;18.00;89.00;;;;;;5112691;28;20648;-91
2023/09/17 08:52:42;;;;;;;23.08;20.77;;;18.00;88.60;;;;;;5112627;28;20201;-91
2023/09/17 08:55:10;;;;;;;21.85;19.67;;;18.00;88.30;;;;;;5112447;28;20201;-91
2023/09/17 08:57:42;;;;;;;21.63;19.58;;;18.00;88.00;;;;;;5113909;28;20250;-91
2023/09/17 09:00:10;;;;;;;22.80;20.58;;;18.10;87.90;;;;;;5112844;28;20699;-90
2023/09/17 09:02:43;;;;;;;23.85;20.05;;;18.20;87.80;;;;;;5112501;28;20197;-91
2023/09/17 09:05:10;;;;;;;21.75;19.63;;;18.20;87.70;;;;;;5112636;28;20568;-91
2023/09/17 09:07:36;;;;;;;21.58;19.48;;;18.20;87.70;;;;;;5112855;28;20539;-92
2023/09/17 09:10:03;;;;;;;22.80;20.15;;;18.30;87.60;;;;;;5112483;28;20285;-89
2023/09/17 09:12:29;;;;;;;20.30;18.50;;;18.30;87.60;;;;;;5113566;27;20170;-90
2023/09/17 09:14:57;;;;;;;19.70;17.88;;;18.40;87.70;;;;;;5112239;28;20194;-91
2023/09/17 09:17:23;;;;;;;20.08;18.17;;;18.40;87.60;;;;;;5112286;28;20185;-90
2023/09/17 09:19:48;;;;;;;19.00;17.35;;;18.50;87.70;;;;;;5112411;28;20649;-90
2023/09/17 09:22:14;;;;;;;19.55;17.63;;;18.50;87.40;;;;;;5112340;28;20177;-89
2023/09/17 09:24:49;;;;;;;27.90;22.33;;;18.50;87.10;;;;;;5113501;28;20274;-90
2023/09/17 09:27:15;;;;;;;18.95;17.02;;;18.50;86.90;;;;;;5112345;28;20219;-90
2023/09/17 09:29:43;;;;;;;19.67;17.88;;;18.50;87.00;;;;;;5112235;28;20641;-90
2023/09/17 09:32:10;;;;;;;18.27;16.48;;;18.60;86.90;;;;;;5112249;28;20173;-89
2023/09/17 09:34:41;;;;;;;20.35;18.45;;;18.50;86.50;;;;;;5115647;28;20190;-89
2023/09/17 09:37:08;;;;;;;17.42;15.98;;;18.60;86.60;;;;;;5116086;28;20174;-89
2023/09/17 09:39:35;;;;;;;18.23;16.73;;;18.60;86.60;;;;;;5116058;28;20174;-88
2023/09/17 09:42:01;;;;;;;18.02;16.23;;;18.70;86.50;;;;;;5115740;28;20204;-89
2023/09/17 09:44:30;;;;;;;17.90;16.15;;;18.70;86.50;;;;;;5115808;28;20190;-91
2023/09/17 09:46:57;;;;;;;18.33;16.42;;;18.80;86.60;;;;;;5117040;28;20165;-91
2023/09/17 09:49:24;;;;;;;18.67;16.92;;;18.80;86.50;;;;;;5115878;28;20667;-90
2023/09/17 09:51:50;;;;;;;19.85;15.63;;;18.80;86.50;;;;;;5115828;28;20178;-90
2023/09/17 09:54:15;;;;;;;17.63;16.02;;;18.90;86.40;;;;;;5117424;27;20200;-88
2023/09/17 09:56:41;;;;;;;17.20;15.68;;;18.90;86.30;;;;;;5115800;28;20558;-90
2023/09/17 09:59:07;;;;;;;18.00;16.30;;;19.00;86.40;;;;;;5115816;28;20223;-91
2023/09/17 10:01:37;;;;;;;16.35;14.88;;;19.10;86.10;;;;;;5115538;28;20217;-90
2023/09/17 10:04:07;;;;;;;19.23;17.63;;;19.20;86.20;;;;;;5115655;28;20743;-88
2023/09/17 10:06:35;;;;;;;19.95;18.35;;;19.20;86.00;;;;;;5115755;28;20173;-90
2023/09/17 10:09:02;;;;;;;22.60;20.63;;;19.30;86.00;;;;;;5116339;28;20178;-90
2023/09/17 10:11:30;;;;;;;15.48;14.07;;;19.40;85.60;;;;;;5115930;28;20170;-89
2023/09/17 10:14:07;;;;;;;16.63;15.13;;;19.50;85.70;;;;;;5116183;28;20248;-89
2023/09/17 10:16:36;;;;;;;17.05;14.40;;;19.60;85.60;;;;;;5115783;28;20176;-89
2023/09/17 10:19:06;;;;;;;15.68;14.25;;;19.70;85.50;;;;;;5115543;28;20174;-89
2023/09/17 10:21:38;;;;;;;15.45;14.20;;;19.80;85.30;;;;;;5116718;28;20200;-88
2023/09/17 10:24:04;;;;;;;17.13;14.40;;;19.90;85.40;;;;;;5115385;28;20277;-88
2023/09/17 10:26:37;;;;;;;15.13;13.77;;;20.10;84.90;;;;;;5115157;28;20616;-88
2023/09/17 10:29:03;;;;;;;14.95;13.68;;;20.20;84.50;;;;;;5116558;27;20142;-89
2023/09/17 10:31:30;;;;;;;15.23;14.02;;;20.30;84.10;;;;;;5115278;28;20222;-88
2023/09/17 10:33:59;;;;;;;14.68;13.52;;;20.40;83.70;;;;;;5116426;28;20606;-89
2023/09/17 10:36:26;;;;;;;14.70;13.50;;;20.50;82.60;;;;;;5115221;28;20174;-89
2023/09/17 10:38:54;;;;;;;15.27;13.98;;;20.60;82.20;;;;;;5117130;28;20180;-89
2023/09/17 10:41:22;;;;;;;14.55;13.25;;;20.70;82.50;;;;;;5116824;28;20190;-89
2023/09/17 10:43:49;;;;;;;14.60;13.40;;;20.90;81.50;;;;;;5115808;28;20190;-90
2023/09/17 10:46:19;;;;;;;14.45;13.40;;;21.00;81.20;;;;;;5114901;28;20212;-90
2023/09/17 10:48:46;;;;;;;16.30;14.98;;;21.20;80.30;;;;;;5114850;28;20174;-90
2023/09/17 10:51:12;;;;;;;15.13;14.02;;;21.30;78.80;;;;;;5116028;28;20543;-91
2023/09/17 10:53:37;;;;;;;15.30;14.20;;;21.60;78.90;;;;;;5116030;28;20190;-89
2023/09/17 10:56:10;;;;;;;15.77;14.57;;;21.80;78.10;;;;;;5115703;28;20208;-89
2023/09/17 10:58:42;;;;;;;14.70;13.52;;;22.00;76.60;;;;;;5114859;28;20238;-90
2023/09/17 11:01:12;;;;;;;15.55;14.27;;;22.20;75.70;;;;;;5116607;28;20222;-91
2023/09/17 11:03:51;;;;;;;14.57;13.38;;;22.30;74.60;;;;;;5115095;28;20190;-90
2023/09/17 11:06:23;;;;;;;15.77;14.57;;;22.50;74.70;;;;;;5114781;28;20173;-90
2023/09/17 11:08:51;;;;;;;18.05;16.42;;;22.60;75.10;;;;;;5114938;28;20200;-89
2023/09/17 11:11:18;;;;;;;14.80;13.73;;;22.50;74.00;;;;;;5115995;28;20177;-90
2023/09/17 11:13:46;;;;;;;16.80;15.60;;;22.60;73.30;;;;;;5114317;28;20202;-90
2023/09/17 11:16:14;;;;;;;16.75;15.20;;;22.80;73.40;;;;;;5115986;28;20174;-91
2023/09/17 11:18:40;;;;;;;16.02;14.82;;;22.90;72.70;;;;;;5119194;28;20185;-91
2023/09/17 11:21:07;;;;;;;22.48;20.80;;;23.10;73.00;;;;;;5115878;28;20206;-90
2023/09/17 11:23:43;;;;;;;23.23;21.30;;;23.20;71.30;;;;;;5115311;28;20733;-89
2023/09/17 11:26:11;;;;;;;27.05;25.25;;;23.30;69.90;;;;;;5115513;28;20166;-92
2023/09/17 11:28:38;;;;;;;18.83;17.42;;;23.50;69.30;;;;;;5114498;28;20174;-91
2023/09/17 11:31:09;;;;;;;17.98;16.73;;;23.60;68.00;;;;;;5114390;28;20178;-90
2023/09/17 11:33:36;;;;;;;17.48;16.23;;;23.80;68.70;;;;;;5114462;28;20623;-90
2023/09/17 11:36:03;;;;;;;19.33;17.92;;;23.80;68.10;;;;;;5114074;28;20185;-91
2023/09/17 11:38:30;;;;;;;20.30;18.83;;;24.00;66.20;;;;;;5114810;28;20671;-91
2023/09/17 11:41:04;;;;;;;20.77;19.27;;;24.10;65.60;;;;;;5116044;28;20225;-90
2023/09/17 11:43:30;;;;;;;20.38;18.75;;;24.20;65.30;;;;;;5116246;28;20190;-91
2023/09/17 11:45:56;;;;;;;20.58;19.13;;;24.30;65.50;;;;;;5114329;28;20223;-91
2023/09/17 11:48:21;;;;;;;22.20;20.40;;;24.40;65.90;;;;;;5115001;28;20166;-90
2023/09/17 11:50:47;;;;;;;21.50;20.00;;;24.60;64.80;;;;;;5113503;28;20222;-91
2023/09/17 11:53:14;;;;;;;22.98;21.38;;;24.70;64.70;;;;;;5113624;28;20173;-91
2023/09/17 11:55:40;;;;;;;22.20;20.20;;;24.60;62.40;;;;;;5113920;28;20672;-91
2023/09/17 11:58:19;;;;;;;22.13;20.55;;;24.60;63.20;;;;;;5113594;28;20178;-92
2023/09/17 12:00:48;;;;;;;21.55;20.02;;;24.60;63.90;;;;;;5114061;28;20203;-92
2023/09/17 12:03:14;;;;;;;21.55;19.95;;;24.70;63.50;;;;;;5115351;28;20169;-92
2023/09/17 12:05:39;;;;;;;22.02;20.10;;;24.80;63.60;;;;;;5113764;28;20166;-92
2023/09/17 12:08:06;;;;;;;21.60;19.92;;;24.70;62.30;;;;;;5113801;28;20231;-91
2023/09/17 12:10:42;;;;;;;21.10;19.52;;;24.80;64.30;;;;;;5114078;28;20182;-91
2023/09/17 12:13:07;;;;;;;20.83;19.42;;;24.80;62.30;;;;;;5113629;28;20170;-91
2023/09/17 12:15:33;;;;;;;20.98;19.33;;;24.70;63.20;;;;;;5114834;28;20713;-91
2023/09/17 12:18:00;;;;;;;20.75;19.38;;;24.60;62.50;;;;;;5114884;28;20637;-91
2023/09/17 12:20:54;;;;;;;20.60;19.10;;;24.50;63.80;;;;;;5114545;28;20562;-91
2023/09/17 12:23:52;;;;;;;21.20;19.73;;;24.50;63.70;;;;;;5113358;28;20194;-91